Time;durP1;ratioP1;P1;durP2;ratioP2;P2;SDS_P1;SDS_P2;PMS_P1;PMS_P2;Temp;Humidity;BMP_temperature;BMP_pressure;BME280_temperature;BME280_humidity;BME280_pressure;Samples;Min_cycle;Max_cycle;Signal;HPM_P1;HPM_P2
2023/10/21 00:01:56;;;;;;;7.00;2.25;;;;;;;17.06;51.37;63764.38;4993354;28;20204;-81
2023/10/21 00:04:24;;;;;;;5.53;2.42;;;;;;;17.00;51.33;63752.44;4993672;28;20238;-81
2023/10/21 00:06:51;;;;;;;13.68;2.90;;;;;;;16.89;52.27;63746.69;5001038;28;20200;-81
2023/10/21 00:09:20;;;;;;;12.65;1.80;;;;;;;16.84;53.19;63740.94;5007513;28;20233;-79
2023/10/21 00:11:47;;;;;;;9.77;2.40;;;;;;;16.77;53.66;63728.53;5011451;28;20198;-81
2023/10/21 00:14:15;;;;;;;7.35;2.53;;;;;;;16.63;54.09;63717.06;5014267;28;20287;-80
2023/10/21 00:16:42;;;;;;;3.72;2.33;;;;;;;16.70;54.21;63721.25;5013563;28;20198;-80
2023/10/21 00:19:10;;;;;;;7.40;2.53;;;;;;;16.52;54.10;63703.03;5019082;28;20253;-80
2023/10/21 00:21:38;;;;;;;3.50;1.67;;;;;;;16.55;54.31;63706.13;5021608;28;20206;-81
2023/10/21 00:24:05;;;;;;;10.77;2.92;;;;;;;16.45;54.48;63695.19;5012279;28;20223;-81
2023/10/21 00:26:43;;;;;;;4.55;2.58;;;;;;;16.40;53.97;63687.44;5012118;28;20201;-82
2023/10/21 00:29:11;;;;;;;9.55;2.33;;;;;;;16.41;54.55;63693.63;5028239;28;20226;-83
2023/10/21 00:31:39;;;;;;;3.78;2.72;;;;;;;16.45;54.67;63697.75;5011666;28;20238;-81
2023/10/21 00:34:06;;;;;;;8.88;2.33;;;;;;;16.36;54.31;63688.94;5011643;28;20227;-79
2023/10/21 00:36:34;;;;;;;7.78;2.42;;;;;;;16.38;54.01;63690.47;5014533;28;20190;-80
2023/10/21 00:39:02;;;;;;;5.45;2.17;;;;;;;16.38;53.29;63691.00;5002101;28;20234;-80
2023/10/21 00:41:29;;;;;;;2.75;2.03;;;;;;;16.41;53.87;63691.06;4992821;28;20267;-81
2023/10/21 00:43:56;;;;;;;5.45;1.80;;;;;;;16.35;56.27;63684.78;4998663;28;20209;-81
2023/10/21 00:46:26;;;;;;;7.85;2.20;;;;;;;16.34;55.92;63684.28;5012152;28;20206;-83
2023/10/21 00:48:53;;;;;;;3.42;2.50;;;;;;;16.33;55.52;63685.28;4992336;28;20287;-81
2023/10/21 00:51:21;;;;;;;18.73;3.20;;;;;;;16.32;54.56;63684.25;4991838;28;20384;-81
2023/10/21 00:53:51;;;;;;;4.20;2.72;;;;;;;16.33;54.93;63682.72;5007476;28;20519;-80
2023/10/21 00:56:18;;;;;;;6.32;2.55;;;;;;;16.30;55.08;63682.69;5010118;28;20217;-82
2023/10/21 00:58:46;;;;;;;5.45;2.50;;;;;;;16.28;54.28;63678.03;5010488;28;20226;-81
2023/10/21 01:01:14;;;;;;;10.40;2.88;;;;;;;16.31;54.36;63685.78;5013208;28;20198;-80
2023/10/21 01:03:41;;;;;;;4.53;2.10;;;;;;;16.23;56.39;63674.88;5004637;28;20250;-81
2023/10/21 01:06:09;;;;;;;6.35;3.00;;;;;;;16.19;56.48;63673.81;4992572;28;20251;-81
2023/10/21 01:08:42;;;;;;;10.02;4.05;;;;;;;16.09;56.53;63658.81;4995160;28;20216;-80
2023/10/21 01:11:11;;;;;;;8.57;2.65;;;;;;;15.99;56.94;63650.44;4992530;28;20227;-81
2023/10/21 01:13:38;;;;;;;11.32;2.97;;;;;;;15.93;57.60;63644.19;5005587;28;20285;-81
2023/10/21 01:16:06;;;;;;;4.35;2.92;;;;;;;15.81;58.40;63631.72;5012715;28;20516;-81
2023/10/21 01:18:35;;;;;;;5.60;3.03;;;;;;;15.48;61.32;63595.38;4997940;28;20682;-81
2023/10/21 01:21:03;;;;;;;4.95;2.72;;;;;;;15.51;61.37;63601.06;5012095;28;20186;-80
2023/10/21 01:23:33;;;;;;;4.35;2.47;;;;;;;15.45;61.90;63594.31;4992157;28;20289;-80
2023/10/21 01:26:01;;;;;;;5.18;2.72;;;;;;;15.45;60.61;63594.81;4991456;28;20246;-81
2023/10/21 01:28:29;;;;;;;4.38;2.28;;;;;;;15.51;61.88;63600.56;4993026;28;20238;-81
2023/10/21 01:30:57;;;;;;;11.57;3.65;;;;;;;15.43;59.78;63589.69;4995827;28;20295;-79
2023/10/21 01:33:24;;;;;;;6.60;2.97;;;;;;;15.43;60.38;63595.31;5010818;28;20225;-79
2023/10/21 01:35:52;;;;;;;4.95;2.08;;;;;;;15.42;61.56;63581.44;5012346;28;20237;-80
2023/10/21 01:38:21;;;;;;;2.60;2.40;;;;;;;15.58;60.15;63605.75;5010905;28;20250;-82
2023/10/21 01:40:50;;;;;;;7.75;2.50;;;;;;;15.60;60.40;63612.47;5010539;28;20229;-82
2023/10/21 01:43:17;;;;;;;7.82;2.30;;;;;;;15.48;59.67;63597.44;5010707;28;20233;-80
2023/10/21 01:45:45;;;;;;;5.80;2.53;;;;;;;15.56;59.84;63605.75;5011240;28;20199;-80
2023/10/21 01:48:13;;;;;;;8.48;3.00;;;;;;;15.46;58.43;63598.44;4989458;28;20238;-81
2023/10/21 01:50:40;;;;;;;10.05;2.25;;;;;;;15.50;58.07;63599.50;5013079;28;20278;-81
2023/10/21 01:53:08;;;;;;;5.90;2.55;;;;;;;15.53;60.20;63603.13;5012081;28;20191;-81
2023/10/21 01:55:36;;;;;;;5.97;1.98;;;;;;;15.55;60.48;63607.78;5012165;28;20222;-82
2023/10/21 01:58:04;;;;;;;4.95;2.85;;;;;;;15.51;59.98;63605.69;5008628;28;20195;-80
2023/10/21 02:00:31;;;;;;;3.35;2.40;;;;;;;15.51;59.03;63600.56;5010087;28;20195;-81
2023/10/21 02:02:59;;;;;;;9.85;2.85;;;;;;;15.54;60.08;63604.19;5012506;28;20191;-83
2023/10/21 02:05:26;;;;;;;4.85;2.70;;;;;;;15.47;59.13;63596.38;4993515;28;20220;-83
2023/10/21 02:07:54;;;;;;;6.07;3.28;;;;;;;15.40;59.62;63592.19;5002732;28;20251;-80
2023/10/21 02:10:22;;;;;;;5.13;2.55;;;;;;;15.57;59.40;63609.34;5012395;28;20226;-83
2023/10/21 02:12:49;;;;;;;7.85;2.92;;;;;;;15.85;58.63;63636.41;5007899;28;20206;-81
2023/10/21 02:15:18;;;;;;;7.32;3.00;;;;;;;15.75;58.71;63628.59;4991996;28;20208;-82
2023/10/21 02:17:46;;;;;;;7.32;2.83;;;;;;;15.70;59.38;63617.72;5008896;28;20254;-81
2023/10/21 02:20:15;;;;;;;4.13;3.28;;;;;;;15.61;59.46;63608.38;5012022;28;20223;-82
2023/10/21 02:22:42;;;;;;;4.55;2.67;;;;;;;15.80;57.40;63626.09;5002805;28;20207;-82
2023/10/21 02:25:11;;;;;;;5.57;2.65;;;;;;;15.73;57.47;63620.84;4995871;28;20269;-81
2023/10/21 02:27:40;;;;;;;6.40;3.00;;;;;;;15.84;57.66;63637.94;5012593;28;20194;-79
2023/10/21 02:30:09;;;;;;;4.60;2.53;;;;;;;15.83;57.10;63636.91;5010296;28;20214;-82
2023/10/21 02:32:38;;;;;;;6.50;3.13;;;;;;;15.97;56.48;63654.03;5009932;28;20506;-82
2023/10/21 02:35:08;;;;;;;2.75;2.50;;;;;;;15.96;56.26;63645.28;5009779;28;20237;-81
2023/10/21 02:37:35;;;;;;;4.20;2.75;;;;;;;16.02;55.01;63653.56;5009786;28;20214;-83
2023/10/21 02:40:04;;;;;;;5.75;2.20;;;;;;;16.05;55.09;63657.22;5011010;28;20269;-81
2023/10/21 02:42:31;;;;;;;13.93;2.25;;;;;;;16.43;54.02;63700.84;5001919;28;20204;-82
2023/10/21 02:44:59;;;;;;;3.60;2.20;;;;;;;16.55;54.00;63710.78;5011364;28;20243;-83
2023/10/21 02:47:27;;;;;;;4.18;1.95;;;;;;;16.42;54.03;63695.19;5010567;28;20199;-82
2023/10/21 02:49:55;;;;;;;8.52;2.63;;;;;;;16.40;54.28;63695.66;5011334;28;20326;-81
2023/10/21 02:52:22;;;;;;;6.05;2.00;;;;;;;16.49;54.21;63701.97;5009757;28;20301;-81
2023/10/21 02:54:49;;;;;;;5.93;2.10;;;;;;;16.50;53.49;63700.94;5009757;28;20238;-81
2023/10/21 02:57:16;;;;;;;2.72;2.22;;;;;;;16.57;52.58;63707.69;5010408;28;20199;-80
2023/10/21 02:59:44;;;;;;;2.83;1.70;;;;;;;16.62;52.54;63713.44;5012169;28;20252;-80
2023/10/21 03:02:13;;;;;;;4.15;1.98;;;;;;;16.64;52.80;63720.13;5008688;28;20274;-81
2023/10/21 03:04:40;;;;;;;8.52;2.50;;;;;;;16.66;53.87;63717.59;5009955;28;20219;-82
2023/10/21 03:07:08;;;;;;;4.35;2.03;;;;;;;16.72;52.88;63731.53;5009567;28;20222;-80
2023/10/21 03:09:36;;;;;;;4.43;2.10;;;;;;;16.61;53.23;63720.09;5011617;28;20226;-80
2023/10/21 03:12:04;;;;;;;4.82;2.25;;;;;;;16.49;53.38;63705.06;5008729;28;20258;-81
2023/10/21 03:14:31;;;;;;;7.35;2.28;;;;;;;16.58;53.07;63711.31;5011534;28;20273;-81
2023/10/21 03:16:58;;;;;;;4.95;2.05;;;;;;;16.51;53.20;63704.03;5009688;28;20195;-83
2023/10/21 03:19:26;;;;;;;9.73;2.28;;;;;;;16.60;52.07;63713.91;5006930;28;20282;-81
2023/10/21 03:21:56;;;;;;;6.35;2.83;;;;;;;16.75;52.48;63734.16;5011115;28;20201;-81
2023/10/21 03:24:25;;;;;;;4.93;2.88;;;;;;;16.56;53.93;63711.81;5010923;28;20292;-81
2023/10/21 03:26:52;;;;;;;7.32;3.60;;;;;;;16.51;54.81;63704.03;5011295;28;20262;-80
2023/10/21 03:29:20;;;;;;;6.70;3.78;;;;;;;16.55;55.50;63708.22;4998712;28;20287;-79
2023/10/21 03:31:47;;;;;;;9.10;3.45;;;;;;;16.29;56.83;63683.72;4993693;28;20302;-80
2023/10/21 03:34:14;;;;;;;9.35;3.53;;;;;;;15.96;58.49;63644.78;5011329;28;20238;-81
2023/10/21 03:36:42;;;;;;;7.55;4.05;;;;;;;15.92;58.79;63645.75;5012745;28;20198;-82
2023/10/21 03:39:09;;;;;;;6.88;3.28;;;;;;;15.87;58.85;63637.97;5007372;28;20226;-81
2023/10/21 03:41:38;;;;;;;5.97;3.03;;;;;;;15.82;59.15;63630.22;4994817;28;20238;-80
2023/10/21 03:44:06;;;;;;;5.10;3.17;;;;;;;15.84;59.60;63635.38;4994907;28;20397;-79
2023/10/21 03:46:33;;;;;;;3.78;2.67;;;;;;;15.77;59.17;63628.09;4994138;28;20443;-82
2023/10/21 03:49:00;;;;;;;4.88;2.97;;;;;;;15.78;58.48;63629.13;4994032;28;20222;-81
2023/10/21 03:51:27;;;;;;;9.38;2.67;;;;;;;15.77;58.89;63622.94;4996681;28;20235;-80
2023/10/21 03:53:54;;;;;;;9.88;2.85;;;;;;;15.69;57.94;63621.81;4994865;28;20239;-82
2023/10/21 03:56:21;;;;;;;6.30;2.58;;;;;;;16.03;56.38;63655.13;5003629;28;20205;-82
2023/10/21 03:58:53;;;;;;;3.70;2.67;;;;;;;15.99;56.17;63648.41;5010605;28;20320;-82
2023/10/21 04:01:21;;;;;;;8.32;2.70;;;;;;;15.92;55.71;63643.69;5012925;28;20218;-80
2023/10/21 04:03:50;;;;;;;3.08;2.08;;;;;;;15.97;55.71;63648.91;5013941;28;20219;-80
2023/10/21 04:06:19;;;;;;;7.30;2.30;;;;;;;16.07;55.06;63658.75;5010036;28;20202;-80
2023/10/21 04:08:47;;;;;;;4.03;2.42;;;;;;;16.25;54.27;63674.41;5011266;28;20219;-82
2023/10/21 04:11:14;;;;;;;7.80;2.30;;;;;;;16.40;53.76;63698.22;4995176;28;20234;-81
2023/10/21 04:13:41;;;;;;;7.15;2.78;;;;;;;16.34;54.17;63683.78;5005799;28;20219;-83
2023/10/21 04:16:11;;;;;;;5.32;1.98;;;;;;;16.37;54.52;63687.41;4993163;28;20199;-80
2023/10/21 04:18:38;;;;;;;2.45;2.25;;;;;;;16.31;54.50;63686.28;5003261;28;20225;-80
2023/10/21 04:21:05;;;;;;;4.97;1.98;;;;;;;16.34;54.10;63686.88;5012982;28;20203;-81
2023/10/21 04:23:32;;;;;;;6.18;2.88;;;;;;;16.44;54.03;63702.41;5011266;28;20246;-80
2023/10/21 04:26:00;;;;;;;4.97;3.15;;;;;;;16.49;54.68;63696.81;5013327;28;20263;-83
2023/10/21 04:28:27;;;;;;;4.65;2.72;;;;;;;16.43;54.61;63696.22;4994729;28;20298;-81
2023/10/21 04:30:55;;;;;;;4.85;2.92;;;;;;;16.39;54.67;63692.06;5001741;28;20227;-82
2023/10/21 04:33:23;;;;;;;4.40;2.47;;;;;;;16.42;54.40;63694.66;5010536;28;20211;-79
2023/10/21 04:35:51;;;;;;;6.85;2.75;;;;;;;16.51;54.74;63702.00;5010308;28;20203;-82
2023/10/21 04:38:18;;;;;;;4.07;2.33;;;;;;;16.40;55.02;63695.13;5003592;28;20217;-82
2023/10/21 04:40:45;;;;;;;10.13;3.83;;;;;;;16.39;55.22;63694.09;5011761;28;20199;-82
2023/10/21 04:43:12;;;;;;;4.45;2.95;;;;;;;16.22;57.44;63676.94;5011600;28;20223;-81
2023/10/21 04:45:39;;;;;;;4.85;3.00;;;;;;;16.19;57.09;63673.81;5008546;28;20199;-82
2023/10/21 04:48:08;;;;;;;5.43;3.10;;;;;;;16.12;57.28;63664.50;5012479;28;20209;-80
2023/10/21 04:50:36;;;;;;;8.18;3.53;;;;;;;16.13;57.48;63662.94;5011936;28;20254;-80
2023/10/21 04:53:04;;;;;;;6.13;3.38;;;;;;;16.07;58.23;63658.75;5011536;28;20278;-81
2023/10/21 04:55:31;;;;;;;6.53;3.40;;;;;;;16.05;59.05;63657.22;5010192;28;20199;-83
2023/10/21 04:57:58;;;;;;;3.78;3.38;;;;;;;15.89;59.54;63637.50;5006360;28;20211;-82
2023/10/21 05:00:26;;;;;;;7.32;2.90;;;;;;;15.90;60.00;63641.63;5007567;28;20494;-81
2023/10/21 05:02:53;;;;;;;7.10;3.13;;;;;;;15.77;60.20;63627.59;5011313;28;20195;-81
2023/10/21 05:05:21;;;;;;;8.30;2.95;;;;;;;15.76;61.53;63624.50;5013227;28;20213;-83
2023/10/21 05:07:50;;;;;;;5.38;3.67;;;;;;;15.77;60.38;63627.59;5010379;28;20235;-79
2023/10/21 05:10:19;;;;;;;8.00;3.15;;;;;;;15.71;60.15;63616.72;5009728;28;20254;-80
2023/10/21 05:12:47;;;;;;;7.13;3.53;;;;;;;15.76;60.59;63623.97;5011884;28;20226;-83
2023/10/21 05:15:15;;;;;;;3.78;3.47;;;;;;;15.81;60.08;63629.69;5010855;28;20242;-82
2023/10/21 05:17:43;;;;;;;6.07;3.35;;;;;;;15.84;61.21;63634.88;5009536;28;20199;-82
2023/10/21 05:20:11;;;;;;;8.55;3.95;;;;;;;16.05;58.79;63656.69;5009222;28;20246;-81
2023/10/21 05:22:39;;;;;;;8.57;3.03;;;;;;;15.91;60.04;63647.28;5009666;28;20191;-79
2023/10/21 05:25:35;;;;;;;8.68;2.95;;;;;;;15.97;59.58;63648.91;5008281;28;20249;-81
2023/10/21 05:28:08;;;;;;;5.38;2.55;;;;;;;16.06;59.30;63657.72;4976547;28;20207;-81
2023/10/21 05:30:35;;;;;;;3.28;2.92;;;;;;;16.12;59.78;63666.53;4984185;28;20339;-80
2023/10/21 05:33:02;;;;;;;5.82;2.67;;;;;;;16.34;58.76;63686.34;4975529;28;20228;-81
2023/10/21 05:35:30;;;;;;;3.78;2.75;;;;;;;16.38;59.02;63685.34;4986489;28;20438;-79
2023/10/21 05:37:57;;;;;;;9.00;3.03;;;;;;;16.51;57.05;63704.03;4988134;28;20207;-83
2023/10/21 05:40:26;;;;;;;10.23;3.33;;;;;;;16.55;56.69;63703.56;4989334;28;20203;-80
2023/10/21 05:42:54;;;;;;;5.35;2.30;;;;;;;16.69;55.29;63727.91;4988203;28;20230;-82
2023/10/21 05:45:23;;;;;;;5.40;3.17;;;;;;;16.84;60.70;63738.88;4988617;28;20199;-81
2023/10/21 05:47:53;;;;;;;11.55;2.97;;;;;;;16.97;58.34;63754.47;4990045;28;20203;-83
2023/10/21 05:50:23;;;;;;;6.28;3.53;;;;;;;16.97;57.78;63751.91;4993381;28;20195;-81
2023/10/21 05:52:51;;;;;;;4.35;2.85;;;;;;;17.10;56.46;63765.44;4990522;28;20251;-80
2023/10/21 05:55:20;;;;;;;9.55;3.38;;;;;;;17.25;54.54;63783.63;4996626;28;20195;-80
2023/10/21 05:57:49;;;;;;;9.30;4.38;;;;;;;17.27;57.99;63783.13;4994505;28;20201;-84
2023/10/21 06:00:17;;;;;;;12.52;3.90;;;;;;;17.31;56.50;63785.25;4990517;28;20226;-80
2023/10/21 06:02:44;;;;;;;7.78;3.35;;;;;;;17.36;55.89;63795.06;4989721;28;20199;-80
2023/10/21 06:05:12;;;;;;;7.53;3.40;;;;;;;17.37;56.84;63790.97;4988798;28;20202;-79
2023/10/21 06:07:40;;;;;;;5.72;4.20;;;;;;;17.42;57.75;63795.66;4988022;28;20195;-78
2023/10/21 06:10:09;;;;;;;6.32;4.13;;;;;;;17.50;56.73;63804.00;4992188;28;20279;-80
2023/10/21 06:12:36;;;;;;;7.97;3.10;;;;;;;17.51;55.54;63805.56;4991838;28;20223;-82
2023/10/21 06:15:06;;;;;;;7.60;3.70;;;;;;;17.52;56.00;63808.66;4990841;28;20223;-81
2023/10/21 06:17:34;;;;;;;7.78;3.40;;;;;;;17.55;56.29;63812.28;4996589;28;20267;-81
2023/10/21 06:20:03;;;;;;;7.68;3.80;;;;;;;17.66;54.58;63826.34;4991403;28;20278;-81
2023/10/21 06:22:30;;;;;;;7.22;3.85;;;;;;;17.60;55.44;63820.06;4987159;28;20199;-83
2023/10/21 06:24:58;;;;;;;10.93;4.43;;;;;;;17.65;54.77;63825.31;4984333;28;20224;-83
2023/10/21 06:27:26;;;;;;;10.45;3.75;;;;;;;17.75;56.25;63835.19;4972653;28;20411;-81
2023/10/21 06:29:53;;;;;;;5.65;3.50;;;;;;;17.72;55.65;63832.06;4983728;28;20214;-83
2023/10/21 06:32:24;;;;;;;5.18;3.75;;;;;;;17.78;56.85;63840.88;4990879;28;20327;-81
2023/10/21 06:34:51;;;;;;;12.05;4.18;;;;;;;17.87;56.14;63843.06;4996490;28;20234;-83
2023/10/21 06:37:19;;;;;;;8.55;3.58;;;;;;;17.91;56.03;63851.84;5008225;28;20199;-83
2023/10/21 06:39:47;;;;;;;9.80;3.40;;;;;;;17.97;56.05;63860.66;5007787;28;20223;-81
2023/10/21 06:42:15;;;;;;;7.15;3.35;;;;;;;18.02;55.92;63861.25;5010973;28;20191;-81
2023/10/21 06:44:42;;;;;;;7.25;3.00;;;;;;;18.07;56.37;63871.63;5016650;28;20249;-82
2023/10/21 06:47:09;;;;;;;5.53;3.65;;;;;;;18.29;55.61;63886.78;5011605;28;20212;-81
2023/10/21 06:49:38;;;;;;;5.82;3.45;;;;;;;18.26;55.63;63886.25;5010304;28;20218;-82
2023/10/21 06:52:06;;;;;;;5.20;3.22;;;;;;;18.30;55.68;63892.47;5006942;28;20254;-83
2023/10/21 06:54:33;;;;;;;8.30;3.17;;;;;;;18.53;56.10;63913.38;5011008;28;20231;-84
2023/10/21 06:57:00;;;;;;;7.32;2.80;;;;;;;18.53;54.67;63919.06;5032597;28;20205;-82
2023/10/21 06:59:27;;;;;;;4.70;3.35;;;;;;;18.53;54.82;63915.94;5002085;28;20463;-84
2023/10/21 07:01:55;;;;;;;5.45;2.88;;;;;;;18.59;55.18;63922.72;5031667;28;20190;-82
2023/10/21 07:04:23;;;;;;;16.35;3.53;;;;;;;18.70;55.19;63936.75;5009878;28;20293;-82
2023/10/21 07:06:52;;;;;;;8.65;3.30;;;;;;;18.77;54.97;63940.97;5012267;28;20225;-82
2023/10/21 07:09:20;;;;;;;8.55;3.50;;;;;;;18.95;54.24;63955.06;5015134;28;20245;-83
2023/10/21 07:11:48;;;;;;;7.15;3.92;;;;;;;19.04;54.71;63963.94;5013432;28;21194;-82
2023/10/21 07:14:15;;;;;;;8.98;3.38;;;;;;;19.14;54.91;63976.94;5003397;28;20245;-83
2023/10/21 07:16:42;;;;;;;7.13;3.70;;;;;;;19.25;54.39;63996.69;5012892;28;20194;-82
2023/10/21 07:19:10;;;;;;;5.78;3.25;;;;;;;19.28;51.92;63994.13;5015874;28;20530;-82
2023/10/21 07:21:37;;;;;;;6.70;3.40;;;;;;;19.38;52.56;64001.97;5013794;28;20517;-82
2023/10/21 07:24:08;;;;;;;5.55;2.80;;;;;;;19.56;52.01;64023.34;5014790;28;20241;-83
2023/10/21 07:26:36;;;;;;;6.25;2.90;;;;;;;19.70;51.86;64037.44;5014714;28;20203;-82
2023/10/21 07:29:03;;;;;;;8.48;3.28;;;;;;;19.79;53.13;64046.81;5034936;28;20214;-82
2023/10/21 07:31:30;;;;;;;12.85;3.30;;;;;;;19.98;51.06;64062.00;5012289;28;20208;-82
2023/10/21 07:33:58;;;;;;;5.05;2.85;;;;;;;19.94;49.58;64060.41;5012936;28;20246;-82
2023/10/21 07:36:25;;;;;;;10.70;3.30;;;;;;;20.06;49.94;64075.50;5013543;28;20214;-81
2023/10/21 07:38:53;;;;;;;10.73;3.28;;;;;;;20.15;50.80;64086.97;5012111;28;20238;-82
2023/10/21 07:41:24;;;;;;;8.15;3.38;;;;;;;20.24;48.09;64089.13;5001719;28;20206;-82
2023/10/21 07:43:51;;;;;;;7.82;3.45;;;;;;;20.27;47.90;64100.03;5002716;28;20289;-81
2023/10/21 07:46:19;;;;;;;6.63;3.40;;;;;;;20.40;47.66;64107.91;4999802;28;20210;-85
2023/10/21 07:48:46;;;;;;;9.73;3.10;;;;;;;20.45;47.85;64113.09;5006284;28;20249;-82
2023/10/21 07:51:13;;;;;;;10.25;3.22;;;;;;;20.48;48.60;64116.75;5002310;28;20213;-81
2023/10/21 07:53:40;;;;;;;4.68;2.78;;;;;;;20.58;48.25;64124.63;5003056;28;20261;-82
2023/10/21 07:56:07;;;;;;;8.98;4.18;;;;;;;20.73;48.71;64147.53;5007765;28;20448;-83
2023/10/21 07:58:38;;;;;;;10.52;3.10;;;;;;;20.84;46.83;64153.84;5012117;28;20280;-82
2023/10/21 08:01:05;;;;;;;6.90;2.92;;;;;;;20.95;47.17;64164.78;5019537;28;20231;-82
2023/10/21 08:03:34;;;;;;;7.93;3.55;;;;;;;20.99;47.11;64169.50;4994204;28;20242;-83
2023/10/21 08:06:01;;;;;;;9.52;3.75;;;;;;;21.06;46.65;64182.00;4996775;28;20200;-82
2023/10/21 08:08:29;;;;;;;5.97;4.13;;;;;;;21.11;47.61;64184.09;5005762;28;20226;-82
2023/10/21 08:11:03;;;;;;;8.35;4.03;;;;;;;21.16;46.68;64186.72;5029889;28;20257;-81
2023/10/21 08:13:31;;;;;;;6.80;3.30;;;;;;;21.08;46.21;64180.97;5017949;28;20278;-81
2023/10/21 08:16:00;;;;;;;8.02;4.00;;;;;;;21.15;46.17;64188.28;5012829;28;20191;-82
2023/10/21 08:18:27;;;;;;;9.88;5.57;;;;;;;21.29;47.31;64205.50;4999112;28;20231;-81
2023/10/21 08:20:55;;;;;;;5.70;3.65;;;;;;;21.35;44.94;64209.16;4996477;28;20255;-81
2023/10/21 08:23:22;;;;;;;9.23;3.95;;;;;;;21.38;44.83;64207.13;4995114;28;20282;-81
2023/10/21 08:25:49;;;;;;;9.13;4.20;;;;;;;21.42;45.46;64214.41;4998479;28;20210;-81
2023/10/21 08:28:17;;;;;;;8.10;4.20;;;;;;;21.66;45.80;64238.97;4995223;28;20226;-80
2023/10/21 08:30:45;;;;;;;8.20;4.03;;;;;;;21.74;46.00;64249.91;4993426;28;20326;-82
2023/10/21 08:33:14;;;;;;;8.32;4.32;;;;;;;21.85;45.75;64258.84;5001658;28;20227;-82
2023/10/21 08:35:41;;;;;;;10.00;4.05;;;;;;;21.99;46.52;64275.53;5016179;28;20210;-82
2023/10/21 08:38:09;;;;;;;9.10;4.00;;;;;;;22.08;43.63;64284.94;5012937;28;20257;-81
2023/10/21 08:40:39;;;;;;;10.90;4.28;;;;;;;22.02;44.95;64279.19;5014217;28;20218;-80
2023/10/21 08:43:07;;;;;;;6.72;3.70;;;;;;;22.13;45.11;64284.97;5005507;28;20199;-82
2023/10/21 08:45:36;;;;;;;8.15;3.95;;;;;;;22.12;45.66;64284.47;4992391;28;20203;-81
2023/10/21 08:48:05;;;;;;;8.73;4.25;;;;;;;22.45;45.83;64323.63;4995270;28;20214;-82
2023/10/21 08:50:36;;;;;;;5.22;3.72;;;;;;;22.44;45.56;64323.09;4996358;28;20207;-81
2023/10/21 08:53:07;;;;;;;8.05;3.53;;;;;;;22.57;44.00;64336.19;5005533;28;20559;-82
2023/10/21 08:55:37;;;;;;;6.80;4.35;;;;;;;22.72;44.43;64351.88;5014735;28;20266;-83
2023/10/21 08:58:06;;;;;;;12.52;4.55;;;;;;;22.75;44.00;64355.00;5013932;28;20202;-83
2023/10/21 09:00:34;;;;;;;13.00;5.03;;;;;;;23.03;42.98;64381.69;5006293;28;20199;-82
2023/10/21 09:03:02;;;;;;;23.80;13.50;;;;;;;23.08;42.36;64388.97;5014498;28;20186;-82
2023/10/21 09:05:29;;;;;;;13.98;6.75;;;;;;;23.20;42.01;64401.53;5014087;28;20503;-83
2023/10/21 09:07:59;;;;;;;13.35;4.95;;;;;;;23.26;41.98;64402.63;5013805;28;20402;-84
2023/10/21 09:10:27;;;;;;;16.98;8.45;;;;;;;23.43;43.28;64425.63;5008877;28;20191;-82
2023/10/21 09:12:55;;;;;;;14.30;5.68;;;;;;;23.64;41.46;64448.09;5013126;28;20285;-83
2023/10/21 09:15:35;;;;;;;9.75;3.47;;;;;;;23.79;40.02;64460.69;5013741;28;20271;-81
2023/10/21 09:18:10;;;;;;;10.63;7.35;;;;;;;24.00;40.10;64483.19;5014120;28;20262;-83
2023/10/21 09:20:40;;;;;;;6.25;4.20;;;;;;;24.19;39.09;64502.03;5008688;28;20250;-83
2023/10/21 09:23:09;;;;;;;11.75;4.22;;;;;;;24.27;38.23;64515.63;4997052;28;20201;-82
2023/10/21 09:25:37;;;;;;;17.70;5.40;;;;;;;24.52;39.64;64539.19;5013555;28;20195;-83
2023/10/21 09:28:08;;;;;;;6.32;3.30;;;;;;;24.76;39.32;64564.34;5007048;28;20207;-82
2023/10/21 09:30:36;;;;;;;8.95;2.70;;;;;;;24.94;33.92;64585.78;5014252;28;20194;-81
2023/10/21 09:33:05;;;;;;;17.50;3.90;;;;;;;25.04;34.64;64594.19;5013452;28;20234;-82
2023/10/21 09:35:34;;;;;;;5.97;2.85;;;;;;;25.19;33.74;64606.78;5014590;28;20262;-82
2023/10/21 09:38:16;;;;;;;9.23;5.57;;;;;;;25.36;34.52;64626.66;5003288;28;20195;-82
2023/10/21 09:40:44;;;;;;;10.98;4.75;;;;;;;25.57;34.09;64649.22;5006166;28;20195;-82
2023/10/21 09:43:13;;;;;;;8.82;3.15;;;;;;;25.74;33.05;64669.13;5005912;28;20198;-83
2023/10/21 09:45:43;;;;;;;12.25;3.05;;;;;;;25.84;32.98;64677.50;5012283;28;20201;-83
2023/10/21 09:48:12;;;;;;;5.32;3.08;;;;;;;25.91;31.72;64681.72;5007716;28;20209;-82
2023/10/21 09:50:46;;;;;;;14.23;3.45;;;;;;;26.03;31.88;64700.06;5014639;28;20187;-82
2023/10/21 09:53:17;;;;;;;10.60;2.53;;;;;;;26.18;30.63;64712.63;5012946;28;20237;-82
2023/10/21 09:55:46;;;;;;;10.82;3.20;;;;;;;26.37;28.71;64735.16;5011245;28;20195;-81
2023/10/21 09:58:13;;;;;;;10.20;2.90;;;;;;;26.48;28.55;64744.09;5010545;28;20220;-83
2023/10/21 10:00:41;;;;;;;8.55;2.63;;;;;;;26.58;28.80;64751.97;5008594;28;20203;-82
2023/10/21 10:03:11;;;;;;;6.47;2.45;;;;;;;26.76;28.39;64770.34;5006869;28;20203;-83
2023/10/21 10:05:42;;;;;;;13.57;2.72;;;;;;;26.80;27.47;64779.78;5014449;28;20233;-81
2023/10/21 10:08:09;;;;;;;16.85;3.40;;;;;;;26.77;27.86;64777.13;5007222;28;20195;-82
2023/10/21 10:10:40;;;;;;;6.93;2.70;;;;;;;26.89;27.89;64787.13;5009178;28;20198;-83
2023/10/21 10:13:10;;;;;;;7.97;2.95;;;;;;;27.00;27.14;64800.75;5011927;28;20241;-84
2023/10/21 10:15:38;;;;;;;17.23;8.48;;;;;;;27.08;27.77;64803.91;5005620;28;20195;-82
2023/10/21 10:18:08;;;;;;;11.38;3.08;;;;;;;27.12;27.63;64813.34;5011571;28;20206;-82
2023/10/21 10:20:44;;;;;;;14.18;2.90;;;;;;;27.16;27.64;64818.03;5014223;28;20195;-83
2023/10/21 10:23:12;;;;;;;5.47;2.47;;;;;;;27.33;27.29;64834.84;5012297;28;20223;-84
2023/10/21 10:25:45;;;;;;;12.73;3.15;;;;;;;27.33;26.06;64829.63;5016471;28;20187;-81
2023/10/21 10:28:19;;;;;;;11.88;3.47;;;;;;;27.38;26.64;64832.78;5008765;28;20199;-82
2023/10/21 10:30:49;;;;;;;6.53;1.98;;;;;;;27.42;26.96;64847.44;5010211;28;20256;-82
2023/10/21 10:33:18;;;;;;;8.25;2.75;;;;;;;27.47;26.29;64844.31;5004311;28;20258;-82
2023/10/21 10:35:49;;;;;;;7.68;2.40;;;;;;;27.28;26.27;64828.03;5005745;28;20202;-82
2023/10/21 10:38:20;;;;;;;5.88;2.83;;;;;;;27.22;25.56;64821.19;5009468;28;20242;-84
2023/10/21 10:40:53;;;;;;;10.05;2.75;;;;;;;27.13;25.65;64817.53;5009028;28;20214;-85
2023/10/21 10:43:21;;;;;;;11.07;2.75;;;;;;;27.23;25.75;64822.25;5011414;28;20235;-84
2023/10/21 10:45:49;;;;;;;9.00;2.53;;;;;;;27.08;25.67;64806.50;5013395;28;20202;-82
2023/10/21 10:48:18;;;;;;;15.13;3.03;;;;;;;27.32;26.21;64829.09;5016826;28;20225;-85
2023/10/21 10:50:47;;;;;;;7.38;2.20;;;;;;;27.30;26.22;64829.63;5009893;28;20199;-83
2023/10/21 10:53:16;;;;;;;11.57;3.13;;;;;;;27.12;26.37;64813.88;5012335;28;20243;-83
2023/10/21 10:55:53;;;;;;;6.15;2.80;;;;;;;27.31;26.85;64830.66;5020407;28;20197;-84
2023/10/21 10:58:22;;;;;;;5.93;2.60;;;;;;;27.18;25.87;64814.91;5015677;28;20245;-85
2023/10/21 11:00:52;;;;;;;9.07;2.97;;;;;;;27.19;26.15;64818.59;5012958;28;20206;-84
2023/10/21 11:03:28;;;;;;;7.30;2.13;;;;;;;27.19;27.02;64815.44;5012535;28;20222;-84
2023/10/21 11:05:57;;;;;;;6.63;2.20;;;;;;;27.23;26.37;64820.16;5013505;28;20206;-81
2023/10/21 11:08:25;;;;;;;5.90;2.80;;;;;;;27.36;26.14;64830.16;5019538;28;20211;-83
2023/10/21 11:11:03;;;;;;;8.45;3.15;;;;;;;27.24;26.54;64820.69;5007556;28;20198;-84
2023/10/21 11:13:31;;;;;;;12.15;3.35;;;;;;;27.07;26.66;64808.63;5028694;28;20229;-84
2023/10/21 11:16:04;;;;;;;9.95;2.20;;;;;;;27.17;27.04;64813.34;5000775;28;20324;-83
2023/10/21 11:18:32;;;;;;;6.57;2.88;;;;;;;27.28;27.42;64827.50;4996967;28;20258;-85
2023/10/21 11:21:00;;;;;;;10.93;2.45;;;;;;;27.36;26.99;64841.16;5000428;28;20223;-86
2023/10/21 11:23:28;;;;;;;7.82;2.90;;;;;;;27.35;26.89;64829.63;5026808;28;20223;-87
2023/10/21 11:26:00;;;;;;;5.75;2.25;;;;;;;27.40;27.27;64834.88;5020654;28;20198;-84
2023/10/21 11:28:28;;;;;;;4.88;2.10;;;;;;;27.55;26.56;64855.31;5021514;28;20246;-85
2023/10/21 11:30:58;;;;;;;11.27;3.40;;;;;;;27.40;26.53;64840.13;5004985;28;20218;-84
2023/10/21 11:33:28;;;;;;;6.38;2.95;;;;;;;27.39;26.31;64838.53;4995761;28;20294;-82
2023/10/21 11:35:56;;;;;;;7.88;2.58;;;;;;;27.38;26.22;64840.09;5009700;28;20227;-85
2023/10/21 11:38:25;;;;;;;10.73;2.65;;;;;;;27.52;27.24;64852.72;5029961;28;20277;-84